createdAt,value
2019-03-11T00:03:07.624Z,1017.4
2019-03-11T00:08:07.503Z,1017.3
2019-03-11T00:13:07.481Z,1017.4
2019-03-11T00:18:07.796Z,1017.5
2019-03-11T00:23:07.634Z,1017.8
2019-03-11T00:28:07.597Z,1017.9
2019-03-11T00:33:07.488Z,1018.1
2019-03-11T00:38:07.484Z,1018.2
2019-03-11T00:43:07.536Z,1018.2
2019-03-11T00:48:07.486Z,1018.2
2019-03-11T00:53:07.631Z,1018.4
2019-03-11T00:58:07.701Z,1018.3
2019-03-11T01:03:07.752Z,1018.3
2019-03-11T01:08:07.667Z,1018.5
2019-03-11T01:13:07.513Z,1018.7
2019-03-11T01:18:07.743Z,1018.7
2019-03-11T01:23:07.529Z,1018.7
2019-03-11T01:28:07.566Z,1018.8
2019-03-11T01:33:07.544Z,1018.8
2019-03-11T01:38:07.681Z,1018.9
2019-03-11T01:43:07.700Z,1019
2019-03-11T01:48:07.746Z,1019
2019-03-11T01:53:07.740Z,1019
2019-03-11T01:58:07.711Z,1019
2019-03-11T02:03:07.737Z,1019.1
2019-03-11T02:08:07.782Z,1018.8
2019-03-11T02:13:07.698Z,1018.8
2019-03-11T02:18:07.579Z,1019.3
2019-03-11T02:23:07.587Z,1019.1
2019-03-11T02:28:07.704Z,1019.2
2019-03-11T02:33:07.741Z,1019.2
2019-03-11T02:38:07.793Z,1019.4
2019-03-11T02:43:07.718Z,1019.2
2019-03-11T02:48:07.734Z,1019.3
2019-03-11T02:53:07.563Z,1019.3
2019-03-11T02:58:07.695Z,1019.4
2019-03-11T03:03:07.779Z,1019.4
2019-03-11T03:08:07.799Z,1019.3
2019-03-11T03:13:07.714Z,1019.4
2019-03-11T03:18:07.728Z,1019.3
2019-03-11T03:23:07.789Z,1019.3
2019-03-11T03:28:08.344Z,1019.3
2019-03-11T03:33:07.751Z,1019.2
2019-03-11T03:38:07.596Z,1019.2
2019-03-11T03:43:08.395Z,1019.2
2019-03-11T03:48:07.653Z,1019
2019-03-11T03:53:07.671Z,1019
2019-03-11T03:58:07.596Z,1019.1
2019-03-11T04:03:07.737Z,1019.1
2019-03-11T04:08:07.821Z,1019.3
2019-03-11T04:13:07.597Z,1019.2
2019-03-11T04:18:07.625Z,1019.3
2019-03-11T04:23:07.804Z,1019.3
2019-03-11T04:28:07.628Z,1019.3
2019-03-11T04:33:07.859Z,1019.3
2019-03-11T04:38:07.784Z,1019.2
2019-03-11T04:43:07.815Z,1019.3
2019-03-11T04:48:08.231Z,1019.2
2019-03-11T04:53:07.763Z,1019.2
2019-03-11T04:58:07.805Z,1019.3
2019-03-11T05:03:07.857Z,1019.3
2019-03-11T05:08:07.883Z,1019.4
2019-03-11T05:13:07.818Z,1019.3
2019-03-11T05:18:07.865Z,1019.4
2019-03-11T05:23:07.802Z,1019.3
2019-03-11T05:28:07.834Z,1019.3
2019-03-11T05:33:07.635Z,1019.4
2019-03-11T05:38:07.668Z,1019.3
2019-03-11T05:43:07.798Z,1019.2
2019-03-11T05:48:07.677Z,1019.1
2019-03-11T05:53:07.674Z,1019.1
2019-03-11T05:58:07.672Z,1019
2019-03-11T06:03:07.678Z,1019
2019-03-11T06:08:07.907Z,1019
2019-03-11T06:13:07.860Z,1019
2019-03-11T06:18:07.875Z,1018.9
2019-03-11T06:23:07.903Z,1018.9
2019-03-11T06:28:07.923Z,1018.9
2019-03-11T06:33:07.684Z,1018.8
2019-03-11T06:38:07.696Z,1018.9
2019-03-11T06:43:07.705Z,1018.9
2019-03-11T06:48:07.711Z,1018.9
2019-03-11T06:53:07.717Z,1018.8
2019-03-11T06:58:07.720Z,1018.8
2019-03-11T07:03:07.710Z,1018.8
2019-03-11T07:08:07.718Z,1018.7
2019-03-11T07:13:07.935Z,1018.6
2019-03-11T07:18:07.706Z,1018.5
2019-03-11T07:23:07.714Z,1018.5
2019-03-11T07:28:07.715Z,1018.5
2019-03-11T07:33:07.879Z,1018.4
2019-03-11T07:38:07.739Z,1018.2
2019-03-11T07:43:07.906Z,1018.2
2019-03-11T07:48:07.756Z,1018.2
2019-03-11T07:53:07.890Z,1018
2019-03-11T07:58:07.917Z,1017.8
2019-03-11T08:03:08.110Z,1017.8
2019-03-11T08:08:08.336Z,1017.6
2019-03-11T08:13:08.421Z,1017.4
2019-03-11T08:18:10.787Z,1017.2
2019-03-11T08:23:07.924Z,1017.1
2019-03-11T08:28:07.945Z,1016.8
2019-03-11T08:33:07.740Z,1016.8
2019-03-11T08:38:07.763Z,1016.6
2019-03-11T08:43:07.798Z,1016.6
2019-03-11T08:48:07.745Z,1016.7
2019-03-11T08:53:07.756Z,1016.4
2019-03-11T08:58:07.924Z,1016.3
2019-03-11T09:03:07.739Z,1016.3
2019-03-11T09:08:08.092Z,1016
2019-03-11T09:13:07.800Z,1016
2019-03-11T09:18:07.971Z,1016.2
2019-03-11T09:23:07.894Z,1016.2
2019-03-11T09:28:07.765Z,1016.5
2019-03-11T09:33:08.978Z,1016.5
2019-03-11T09:38:07.783Z,1016.5
2019-03-11T09:43:07.777Z,1016.7
2019-03-11T09:48:07.793Z,1016.8
2019-03-11T09:53:07.772Z,1017.1
2019-03-11T09:58:07.769Z,1017
2019-03-11T10:03:07.787Z,1017.3
2019-03-11T10:08:07.812Z,1017.3
2019-03-11T10:13:08.051Z,1017.7
2019-03-11T10:18:07.976Z,1017.7
2019-03-11T10:23:08.025Z,1017.8
2019-03-11T10:28:07.808Z,1018
2019-03-11T10:33:07.962Z,1018.4
2019-03-11T10:38:08.016Z,1018.5
2019-03-11T10:43:08.033Z,1018.8
2019-03-11T10:48:07.963Z,1018.9
2019-03-11T10:53:07.814Z,1020.1
2019-03-11T10:58:08.044Z,1020.3
2019-03-11T11:03:07.838Z,1020.2
2019-03-11T11:08:07.996Z,1020.3
2019-03-11T11:13:08.066Z,1020.4
2019-03-11T11:18:07.827Z,1020.3
2019-03-11T11:23:08.021Z,1020.4
2019-03-11T11:28:07.827Z,1020.2
2019-03-11T11:33:08.069Z,1020.2
2019-03-11T11:38:07.993Z,1020.2
2019-03-11T11:43:07.853Z,1020
2019-03-11T11:48:08.890Z,1020.2
2019-03-11T11:53:07.991Z,1020.2
2019-03-11T11:58:08.068Z,1020.2
2019-03-11T12:03:08.084Z,1019.8
2019-03-11T12:08:08.019Z,1019.9
2019-03-11T12:13:08.046Z,1019.8
2019-03-11T12:18:08.082Z,1019.9
2019-03-11T12:23:07.836Z,1019.8
2019-03-11T12:28:08.039Z,1019.8
2019-03-11T12:33:08.098Z,1019.8
2019-03-11T12:38:08.001Z,1019.9
2019-03-11T12:43:08.030Z,1020
2019-03-11T12:48:08.111Z,1020
2019-03-11T12:53:07.922Z,1019.8
2019-03-11T12:58:08.041Z,1019.8
2019-03-11T13:03:08.094Z,1019.5
2019-03-11T13:08:08.124Z,1019.7
2019-03-11T13:13:08.037Z,1019.9
2019-03-11T13:18:08.064Z,1019.8
2019-03-11T13:23:08.123Z,1019.9
2019-03-11T13:28:07.923Z,1019.8
2019-03-11T13:33:08.076Z,1019.6
2019-03-11T13:38:07.973Z,1019.7
2019-03-11T13:43:08.051Z,1019.5
2019-03-11T13:48:08.106Z,1019.5
2019-03-11T13:53:08.115Z,1019.2
2019-03-11T13:58:08.147Z,1019.4
2019-03-11T14:03:07.981Z,1019.2
2019-03-11T14:08:08.135Z,1019.2
2019-03-11T14:13:07.924Z,1019.2
2019-03-11T14:18:08.098Z,1019
2019-03-11T14:23:08.122Z,1019.1
2019-03-11T14:28:07.947Z,1019
2019-03-11T14:33:07.957Z,1019
2019-03-11T14:38:07.948Z,1018.9
2019-03-11T14:43:08.063Z,1018.8
2019-03-11T14:48:07.936Z,1019.1
2019-03-11T14:53:08.107Z,1019
2019-03-11T14:58:08.201Z,1019.2
2019-03-11T15:03:08.907Z,1019.2
2019-03-11T15:08:09.167Z,1019.4
2019-03-11T15:13:09.112Z,1019.3
2019-03-11T15:18:09.112Z,1019.2
2019-03-11T15:23:21.317Z,1019.2
2019-03-11T15:28:09.097Z,1019.1
2019-03-11T15:33:09.180Z,1019.1
2019-03-11T15:38:09.163Z,1019.1
2019-03-11T15:43:09.080Z,1019.1
2019-03-11T15:48:09.095Z,1019.3
2019-03-11T15:53:08.949Z,1019.6
2019-03-11T15:58:08.958Z,1019.8
2019-03-11T16:03:08.943Z,1019.8
2019-03-11T16:08:08.963Z,1019.8
2019-03-11T16:13:08.958Z,1019.8
2019-03-11T16:18:08.964Z,1019.8
2019-03-11T16:23:08.969Z,1019.8
2019-03-11T16:28:08.964Z,1019.9
2019-03-11T16:33:09.000Z,1020.1
2019-03-11T16:38:08.962Z,1020.2
2019-03-11T16:43:08.980Z,1020.2
2019-03-11T16:48:08.955Z,1020.2
2019-03-11T16:53:11.976Z,1020.4
2019-03-11T16:58:08.982Z,1020.8
2019-03-11T17:03:09.081Z,1020.7
2019-03-11T17:08:09.023Z,1020.9
2019-03-11T17:13:09.007Z,1020.9
2019-03-11T17:18:09.234Z,1021.1
2019-03-11T17:23:08.987Z,1021.2
2019-03-11T17:28:08.997Z,1021.2
2019-03-11T17:33:09.027Z,1021.2
2019-03-11T17:38:09.037Z,1021.5
2019-03-11T17:43:09.077Z,1021.7
2019-03-11T17:48:09.062Z,1022
2019-03-11T17:53:20.517Z,1022.3
2019-03-11T17:58:09.122Z,1022.4
2019-03-11T18:03:09.089Z,1022.4
2019-03-11T18:08:09.059Z,1022.2
2019-03-11T18:13:09.308Z,1022.4
2019-03-11T18:18:09.486Z,1022.5
2019-03-11T18:23:09.372Z,1022.7
2019-03-11T18:28:09.114Z,1022.8
2019-03-11T18:33:10.244Z,1022.9
2019-03-11T18:38:09.281Z,1022.9
2019-03-11T18:43:21.405Z,1022.9
2019-03-11T18:48:10.105Z,1023
2019-03-11T18:53:12.169Z,1022.9
2019-03-11T18:58:09.231Z,1023
2019-03-11T19:03:09.244Z,1023
2019-03-11T19:08:12.163Z,1023.1
2019-03-11T19:13:10.266Z,1023
2019-03-11T19:18:09.190Z,1023
2019-03-11T19:23:09.288Z,1023
2019-03-11T19:28:09.153Z,1023.1
2019-03-11T19:33:11.664Z,1023.1
2019-03-11T19:38:09.645Z,1023.1
2019-03-11T19:43:10.275Z,1023
2019-03-11T19:48:09.403Z,1023
2019-03-11T19:53:09.225Z,1023.1
2019-03-11T19:58:09.140Z,1023.2
2019-03-11T20:03:09.194Z,1023.2
2019-03-11T20:08:10.480Z,1023.3
2019-03-11T20:13:12.497Z,1023.3
2019-03-11T20:18:12.018Z,1023.3
2019-03-11T20:23:09.156Z,1023.4
2019-03-11T20:28:09.180Z,1023.4
2019-03-11T20:33:12.242Z,1023.3
2019-03-11T20:38:09.464Z,1023.3
2019-03-11T20:43:11.872Z,1023.1
2019-03-11T20:48:09.773Z,1023.2
2019-03-11T20:53:09.568Z,1023.2
2019-03-11T20:58:09.441Z,1023.2
2019-03-11T21:03:09.795Z,1023.3
2019-03-11T21:08:09.331Z,1023.4
2019-03-11T21:13:09.274Z,1023.4
2019-03-11T21:18:09.567Z,1023.4
2019-03-11T21:23:09.352Z,1023.3
2019-03-11T21:28:09.400Z,1023.2
2019-03-11T21:33:09.231Z,1023.2
2019-03-11T21:38:09.397Z,1023.3
2019-03-11T21:43:10.460Z,1023.5
2019-03-11T21:48:09.308Z,1023.5
2019-03-11T21:53:09.406Z,1023.5
2019-03-11T21:58:14.142Z,1023.5
2019-03-11T22:03:09.410Z,1023.5
2019-03-11T22:08:09.131Z,1023.5
2019-03-11T22:13:09.190Z,1023.3
2019-03-11T22:18:09.150Z,1023.3
2019-03-11T22:23:09.127Z,1023.5
2019-03-11T22:28:09.319Z,1023.3
2019-03-11T22:33:09.383Z,1023.3
2019-03-11T22:38:09.290Z,1023.4
2019-03-11T22:43:09.147Z,1023.3
2019-03-11T22:48:12.181Z,1023.3
2019-03-11T22:53:09.154Z,1023.3
2019-03-11T22:58:09.165Z,1023.3
2019-03-11T23:03:09.341Z,1023.4
2019-03-11T23:08:09.279Z,1023.5
2019-03-11T23:13:09.313Z,1023.4
2019-03-11T23:18:09.351Z,1023.6
2019-03-11T23:23:09.399Z,1023.6
2019-03-11T23:28:09.301Z,1023.5
2019-03-11T23:33:09.385Z,1023.5
2019-03-11T23:38:09.415Z,1023.5
2019-03-11T23:43:09.185Z,1023.5
2019-03-11T23:48:09.198Z,1023.5
2019-03-11T23:53:09.399Z,1023.5
2019-03-11T23:58:09.331Z,1023.5
